Time;durP1;ratioP1;P1;durP2;ratioP2;P2;SDS_P1;SDS_P2;PMS_P1;PMS_P2;Temp;Humidity;BMP_temperature;BMP_pressure;BME280_temperature;BME280_humidity;BME280_pressure;Samples;Min_cycle;Max_cycle;Signal;HPM_P1;HPM_P2
2021/08/12 00:01:49;;;;;;;22.55;9.20;;;;;;;14.69;78.46;101845.38;5074302;28;20158;-67
2021/08/12 00:04:19;;;;;;;22.02;8.23;;;;;;;14.72;79.44;101834.75;5074013;28;20048;-65
2021/08/12 00:06:45;;;;;;;21.15;8.43;;;;;;;14.64;78.40;101837.38;5074294;28;20028;-65
2021/08/12 00:09:10;;;;;;;21.67;8.20;;;;;;;14.58;78.61;101834.69;5074353;28;20028;-65
2021/08/12 00:11:36;;;;;;;21.77;9.40;;;;;;;14.61;79.81;101832.94;5074212;28;20029;-66
2021/08/12 00:14:02;;;;;;;21.35;8.88;;;;;;;14.51;79.78;101836.41;5073892;28;20028;-65
2021/08/12 00:16:27;;;;;;;23.80;9.98;;;;;;;14.40;81.87;101832.81;5074048;28;20467;-66
2021/08/12 00:18:55;;;;;;;23.33;9.00;;;;;;;14.34;80.78;101839.00;5073752;28;20032;-66
2021/08/12 00:21:22;;;;;;;23.60;9.15;;;;;;;14.39;81.78;101834.59;5073564;28;20090;-64
2021/08/12 00:23:48;;;;;;;21.98;9.30;;;;;;;14.31;81.75;101839.00;5073934;28;20025;-64
2021/08/12 00:26:13;;;;;;;23.30;10.13;;;;;;;14.28;82.78;101847.88;5073675;28;20035;-64
2021/08/12 00:28:39;;;;;;;22.70;9.35;;;;;;;14.32;82.66;101843.44;5073679;28;20493;-65
2021/08/12 00:31:04;;;;;;;21.90;8.95;;;;;;;14.29;80.69;101835.44;5073729;28;20028;-64
2021/08/12 00:33:31;;;;;;;21.63;8.98;;;;;;;14.24;80.39;101846.06;5073768;28;20020;-64
2021/08/12 00:35:56;;;;;;;22.88;9.55;;;;;;;14.23;81.10;101838.97;5071874;28;20123;-64
2021/08/12 00:38:21;;;;;;;22.90;9.07;;;;;;;14.20;80.25;101844.28;5073601;28;20111;-65
2021/08/12 00:40:47;;;;;;;23.25;9.02;;;;;;;14.22;80.63;101842.50;5073651;28;20031;-64
2021/08/12 00:43:12;;;;;;;22.38;9.07;;;;;;;14.17;80.36;101841.59;5073470;28;20028;-64
2021/08/12 00:45:37;;;;;;;23.05;9.52;;;;;;;14.16;81.22;101849.56;5073198;28;20032;-64
2021/08/12 00:48:03;;;;;;;22.95;10.05;;;;;;;14.12;82.72;101838.91;5073301;28;20032;-64
2021/08/12 00:50:28;;;;;;;22.88;8.93;;;;;;;14.16;80.56;101839.81;5073561;28;20020;-65
2021/08/12 00:52:54;;;;;;;21.63;9.20;;;;;;;14.09;80.98;101833.56;5073109;28;20052;-65
2021/08/12 00:55:19;;;;;;;22.45;8.80;;;;;;;14.10;80.73;101839.78;5073440;28;20024;-64
2021/08/12 00:57:45;;;;;;;22.23;9.27;;;;;;;14.21;81.29;101845.16;5073203;28;20032;-64
2021/08/12 01:00:10;;;;;;;21.45;8.77;;;;;;;14.23;81.49;101840.75;5072677;28;20024;-64
2021/08/12 01:02:38;;;;;;;23.10;9.25;;;;;;;14.23;80.89;101838.97;5072761;28;20494;-64
2021/08/12 01:05:06;;;;;;;23.70;8.75;;;;;;;14.22;81.32;101844.28;5072995;28;20059;-65
2021/08/12 01:08:11;;;;;;;22.25;9.02;;;;;;;14.27;80.87;101845.16;5072858;28;20039;-64
2021/08/12 01:10:52;;;;;;;22.15;9.10;;;;;;;14.32;81.16;101839.91;5072740;28;20455;-64
2021/08/12 01:13:45;;;;;;;21.95;9.60;;;;;;;14.39;81.81;101841.72;5070063;28;20032;-64
2021/08/12 01:16:13;;;;;;;22.63;9.75;;;;;;;14.36;82.81;101836.34;5069205;28;20037;-64
2021/08/12 01:18:43;;;;;;;22.40;9.68;;;;;;;14.33;83.80;101846.97;5072728;28;20032;-63
2021/08/12 01:21:43;;;;;;;22.85;9.70;;;;;;;14.35;82.84;101842.56;5072661;28;20045;-64
2021/08/12 01:24:12;;;;;;;21.55;8.95;;;;;;;14.35;83.80;101837.25;5072352;28;20032;-64
2021/08/12 01:26:41;;;;;;;22.13;9.52;;;;;;;14.39;84.20;101841.72;5072611;28;20483;-65
2021/08/12 01:29:13;;;;;;;21.90;8.93;;;;;;;14.43;83.88;101840.81;5072629;28;20471;-63
2021/08/12 01:31:51;;;;;;;23.77;9.60;;;;;;;14.40;83.85;101840.81;5073210;28;20467;-64
2021/08/12 01:34:43;;;;;;;22.52;9.50;;;;;;;14.41;83.29;101842.59;5069561;28;20456;-64
2021/08/12 01:37:11;;;;;;;23.65;8.80;;;;;;;14.40;83.17;101835.47;5072771;28;20459;-64
2021/08/12 01:39:38;;;;;;;21.77;8.90;;;;;;;14.37;83.13;101830.16;5072498;28;20032;-64
2021/08/12 01:42:05;;;;;;;21.52;8.90;;;;;;;14.33;83.41;101839.91;5072582;28;20021;-64
2021/08/12 01:44:32;;;;;;;23.13;9.10;;;;;;;14.32;84.34;101843.44;5072946;28;20036;-64
2021/08/12 01:46:58;;;;;;;21.02;8.77;;;;;;;14.36;84.77;101842.56;5072507;28;20093;-64
2021/08/12 01:49:24;;;;;;;21.52;9.50;;;;;;;14.37;85.46;101846.09;5072632;28;20028;-64
2021/08/12 01:51:51;;;;;;;24.65;10.15;;;;;;;14.37;85.92;101843.44;5072791;28;20387;-64
2021/08/12 01:54:17;;;;;;;23.55;10.52;;;;;;;14.37;86.04;101846.09;5072669;28;20047;-63
2021/08/12 01:56:44;;;;;;;22.92;10.07;;;;;;;14.33;86.61;101836.34;5072465;28;20391;-64
2021/08/12 01:59:09;;;;;;;23.60;9.45;;;;;;;14.25;86.31;101829.22;5072580;28;20027;-64
2021/08/12 02:01:35;;;;;;;22.23;9.65;;;;;;;14.15;86.74;101832.72;5072236;28;20455;-64
2021/08/12 02:04:02;;;;;;;23.80;9.70;;;;;;;14.09;86.96;101828.25;5072178;28;20025;-64
2021/08/12 02:06:34;;;;;;;23.98;10.25;;;;;;;14.04;87.93;101829.13;5072394;28;20024;-65
2021/08/12 02:08:59;;;;;;;25.08;10.93;;;;;;;13.92;89.09;101824.59;5072380;28;20035;-65
2021/08/12 02:11:24;;;;;;;24.52;9.77;;;;;;;13.81;90.25;101807.72;5073670;28;20033;-65
2021/08/12 02:13:50;;;;;;;23.17;10.32;;;;;;;13.75;91.22;101811.22;5076365;28;20020;-65
2021/08/12 02:16:15;;;;;;;24.50;10.80;;;;;;;13.72;91.35;101798.81;5076250;28;20086;-64
2021/08/12 02:18:42;;;;;;;24.27;9.88;;;;;;;13.71;91.29;101796.13;5076283;28;20025;-64
2021/08/12 02:21:17;;;;;;;22.65;9.93;;;;;;;13.68;90.93;101791.69;5076098;28;20044;-64
2021/08/12 02:23:53;;;;;;;22.88;9.13;;;;;;;13.63;90.59;101793.44;5072272;28;20023;-64
2021/08/12 02:26:20;;;;;;;22.55;10.00;;;;;;;13.53;92.01;101786.28;5073300;28;20037;-64
2021/08/12 02:28:47;;;;;;;22.25;8.95;;;;;;;13.48;90.50;101782.69;5076187;28;20025;-65
2021/08/12 02:31:16;;;;;;;21.50;8.80;;;;;;;13.37;90.55;101783.50;5075966;28;20052;-66
2021/08/12 02:33:43;;;;;;;22.70;8.95;;;;;;;13.35;90.44;101779.97;5072116;28;20021;-65
2021/08/12 02:36:09;;;;;;;22.27;9.10;;;;;;;13.31;90.15;101779.88;5075786;28;20021;-65
2021/08/12 02:38:37;;;;;;;22.30;9.55;;;;;;;13.36;91.37;101786.16;5075821;28;20130;-66
2021/08/12 02:41:05;;;;;;;23.42;9.57;;;;;;;13.29;90.60;101787.81;5075664;28;20455;-65
2021/08/12 02:43:32;;;;;;;23.27;10.38;;;;;;;13.28;92.08;101793.13;5075890;28;20021;-66
2021/08/12 02:46:00;;;;;;;24.02;9.75;;;;;;;13.24;91.07;101795.75;5075630;28;20060;-66
2021/08/12 02:48:29;;;;;;;24.05;10.07;;;;;;;13.24;91.60;101798.41;5075815;28;20063;-66
2021/08/12 02:50:57;;;;;;;22.60;10.25;;;;;;;13.24;92.23;101794.88;5075517;28;20040;-65
2021/08/12 02:53:24;;;;;;;23.77;10.32;;;;;;;13.22;92.03;101794.88;5075912;28;20081;-65
2021/08/12 02:55:51;;;;;;;23.77;10.68;;;;;;;13.14;93.97;101793.91;5075431;28;20055;-66
2021/08/12 02:58:18;;;;;;;23.88;11.43;;;;;;;13.19;94.29;101800.16;5075648;28;20028;-65
2021/08/12 03:00:44;;;;;;;22.52;10.18;;;;;;;13.16;93.14;101797.44;5075429;28;20027;-66
2021/08/12 03:03:10;;;;;;;23.13;10.32;;;;;;;13.18;93.34;101795.72;5075179;28;20044;-66
2021/08/12 03:05:37;;;;;;;23.38;10.65;;;;;;;13.15;91.78;101787.72;5075310;28;20037;-66
2021/08/12 03:08:06;;;;;;;24.60;11.00;;;;;;;13.15;93.98;101785.06;5075675;28;20104;-64
2021/08/12 03:10:32;;;;;;;25.17;11.80;;;;;;;13.11;94.28;101780.59;5075496;28;20033;-65
2021/08/12 03:13:00;;;;;;;22.50;10.20;;;;;;;13.02;92.48;101791.16;5075169;28;20028;-64
2021/08/12 03:15:28;;;;;;;22.63;10.60;;;;;;;12.98;92.35;101787.56;5075014;28;20037;-63
2021/08/12 03:17:54;;;;;;;22.98;10.43;;;;;;;12.96;91.74;101793.72;5075349;28;20463;-64
2021/08/12 03:20:29;;;;;;;23.30;11.43;;;;;;;13.01;94.10;101794.66;5075337;28;20166;-64
2021/08/12 03:22:55;;;;;;;24.05;10.48;;;;;;;12.96;92.21;101783.09;5074099;28;20044;-64
2021/08/12 03:25:21;;;;;;;23.27;10.70;;;;;;;12.83;92.06;101785.66;5073737;28;20036;-64
2021/08/12 03:27:46;;;;;;;23.42;10.63;;;;;;;12.82;92.31;101777.69;5074897;28;20497;-64
2021/08/12 03:30:12;;;;;;;23.80;10.55;;;;;;;12.78;93.85;101779.41;5075019;28;20024;-64
2021/08/12 03:32:37;;;;;;;23.73;10.15;;;;;;;12.74;93.81;101777.59;5074886;28;20177;-64
2021/08/12 03:35:03;;;;;;;23.27;11.23;;;;;;;12.65;95.81;101780.16;5074676;28;20048;-64
2021/08/12 03:37:29;;;;;;;22.73;10.48;;;;;;;12.64;95.41;101781.94;5074647;28;20029;-64
2021/08/12 03:39:54;;;;;;;24.95;11.55;;;;;;;12.49;97.49;101787.03;5074759;28;20082;-64
2021/08/12 03:42:19;;;;;;;23.95;11.82;;;;;;;12.50;98.12;101784.41;5074866;28;20017;-64
2021/08/12 03:44:44;;;;;;;24.45;11.38;;;;;;;12.39;98.72;101786.03;5074870;28;20020;-64
2021/08/12 03:47:10;;;;;;;23.23;11.07;;;;;;;12.38;97.44;101801.06;5074668;28;20046;-64
2021/08/12 03:49:35;;;;;;;22.90;11.50;;;;;;;12.43;96.78;101798.47;5074346;28;20120;-64
2021/08/12 03:52:01;;;;;;;24.50;11.98;;;;;;;12.39;96.75;101799.28;5074689;28;20483;-64
2021/08/12 03:54:26;;;;;;;24.80;11.82;;;;;;;12.40;97.89;101795.78;5074280;28;20024;-64
2021/08/12 03:56:51;;;;;;;24.05;11.73;;;;;;;12.40;96.22;101790.47;5074264;28;20028;-64
2021/08/12 03:59:17;;;;;;;24.23;11.93;;;;;;;12.42;95.17;101798.44;5074435;28;20070;-64
2021/08/12 04:01:42;;;;;;;24.80;11.00;;;;;;;12.45;94.26;101798.50;5073966;28;20066;-64
2021/08/12 04:04:07;;;;;;;23.83;10.02;;;;;;;12.52;95.15;101795.94;5074107;28;20486;-64
2021/08/12 04:06:33;;;;;;;23.65;10.38;;;;;;;12.57;93.98;101796.00;5074493;28;20098;-64
2021/08/12 04:08:58;;;;;;;23.60;10.80;;;;;;;12.55;94.12;101797.72;5074153;28;20063;-65
2021/08/12 04:11:23;;;;;;;22.77;10.27;;;;;;;12.55;92.78;101798.63;5074119;28;20036;-64
2021/08/12 04:13:49;;;;;;;22.95;10.20;;;;;;;12.57;92.58;101793.34;5074008;28;20034;-64
2021/08/12 04:16:14;;;;;;;22.45;10.50;;;;;;;12.52;92.40;101797.69;5073793;28;20026;-63
2021/08/12 04:18:39;;;;;;;23.45;11.23;;;;;;;12.53;93.46;101791.53;5074039;28;20472;-64
2021/08/12 04:21:05;;;;;;;23.38;11.13;;;;;;;12.55;95.25;101805.69;5073542;28;20040;-65
2021/08/12 04:23:31;;;;;;;23.38;10.82;;;;;;;12.52;94.58;101801.25;5073926;28;20029;-66
2021/08/12 04:25:56;;;;;;;23.23;11.25;;;;;;;12.54;95.56;101794.19;5073786;28;20514;-65
2021/08/12 04:28:21;;;;;;;24.58;11.68;;;;;;;12.53;96.63;101791.53;5073647;28;20466;-66
2021/08/12 04:30:49;;;;;;;22.67;10.90;;;;;;;12.46;94.66;101795.84;5073609;28;20029;-65
2021/08/12 04:33:16;;;;;;;23.48;11.27;;;;;;;12.50;95.56;101807.41;5073428;28;20044;-66
2021/08/12 04:35:42;;;;;;;23.48;11.90;;;;;;;12.49;95.73;101806.50;5073407;28;20389;-65
2021/08/12 04:38:08;;;;;;;23.80;12.05;;;;;;;12.47;95.51;101812.66;5073346;28;20455;-66
2021/08/12 04:40:33;;;;;;;25.45;12.18;;;;;;;12.48;96.42;101810.03;5073709;28;20039;-65
2021/08/12 04:42:58;;;;;;;24.50;11.50;;;;;;;12.46;95.98;101817.06;5073428;28;20032;-66
2021/08/12 04:45:24;;;;;;;25.48;12.18;;;;;;;12.48;96.09;101815.34;5073198;28;20032;-65
2021/08/12 04:47:50;;;;;;;24.55;11.50;;;;;;;12.60;96.83;101819.91;5073649;28;20025;-66
2021/08/12 04:50:16;;;;;;;24.27;12.02;;;;;;;12.65;96.34;101817.28;5073480;28;20459;-66
2021/08/12 04:52:41;;;;;;;25.35;12.30;;;;;;;12.67;96.97;101823.53;5073517;28;20423;-66
2021/08/12 04:55:09;;;;;;;25.92;13.50;;;;;;;12.69;98.84;101824.41;5073397;28;20054;-65
2021/08/12 04:57:34;;;;;;;24.27;12.15;;;;;;;12.67;96.52;101827.06;5073087;28;20032;-65
2021/08/12 05:00:00;;;;;;;25.60;12.98;;;;;;;12.66;97.21;101833.22;5073181;28;20543;-66
2021/08/12 05:02:26;;;;;;;25.35;12.48;;;;;;;12.69;97.37;101829.72;5072981;28;20024;-65
2021/08/12 05:04:52;;;;;;;24.10;12.07;;;;;;;12.82;97.95;101834.28;5073153;28;20449;-64
2021/08/12 05:07:17;;;;;;;24.23;12.55;;;;;;;12.80;98.04;101828.09;5072851;28;20021;-64
2021/08/12 05:09:42;;;;;;;24.48;13.00;;;;;;;12.88;98.53;101821.06;5073112;28;20078;-64
2021/08/12 05:12:08;;;;;;;26.02;13.20;;;;;;;12.87;97.89;101823.72;5072512;28;20547;-64
2021/08/12 05:14:33;;;;;;;25.67;13.63;;;;;;;12.94;97.76;101822.91;5073217;28;20119;-63
2021/08/12 05:16:59;;;;;;;26.13;13.07;;;;;;;12.92;98.74;101819.34;5072839;28;20066;-64
2021/08/12 05:19:24;;;;;;;26.17;15.10;;;;;;;12.97;99.88;101819.41;5072776;28;20027;-65
2021/08/12 05:21:49;;;;;;;26.65;13.85;;;;;;;13.07;99.68;101826.56;5071566;28;20086;-62
2021/08/12 05:24:15;;;;;;;26.80;14.75;;;;;;;13.18;100.00;101819.59;5072140;28;20027;-60
2021/08/12 05:26:40;;;;;;;27.70;15.73;;;;;;;13.34;100.00;101819.72;5071058;28;20024;-61
2021/08/12 05:29:07;;;;;;;28.70;16.70;;;;;;;13.34;100.00;101818.00;5068545;28;20017;-61
2021/08/12 05:31:33;;;;;;;27.20;15.90;;;;;;;13.41;100.00;101811.88;5070086;28;20020;-61
2021/08/12 05:33:58;;;;;;;27.10;16.23;;;;;;;13.43;100.00;101814.53;5066589;28;20028;-62
2021/08/12 05:36:23;;;;;;;29.63;17.45;;;;;;;13.53;100.00;101820.81;5070642;28;20065;-62
2021/08/12 05:38:49;;;;;;;28.45;16.20;;;;;;;13.53;100.00;101805.75;5069730;28;20042;-61
2021/08/12 05:41:14;;;;;;;27.63;15.32;;;;;;;13.64;100.00;101813.78;5069583;28;20028;-61
2021/08/12 05:43:39;;;;;;;30.38;17.17;;;;;;;13.70;100.00;101813.84;5071045;28;20017;-62
2021/08/12 05:46:05;;;;;;;28.73;17.15;;;;;;;13.80;100.00;101828.06;5071666;28;20020;-62
2021/08/12 05:48:30;;;;;;;29.20;18.45;;;;;;;13.90;100.00;101826.38;5070626;28;20432;-62
2021/08/12 05:50:56;;;;;;;28.48;17.25;;;;;;;14.04;100.00;101826.47;5072773;28;20029;-64
2021/08/12 05:53:22;;;;;;;31.92;18.58;;;;;;;14.07;100.00;101827.34;5072829;28;20027;-64
2021/08/12 05:55:48;;;;;;;28.88;18.10;;;;;;;14.13;100.00;101829.16;5077006;28;20072;-64
2021/08/12 05:58:14;;;;;;;32.28;20.23;;;;;;;14.17;100.00;101836.28;5079338;28;20491;-63
2021/08/12 06:00:39;;;;;;;32.13;20.10;;;;;;;14.26;100.00;101835.44;5075269;28;20114;-63
2021/08/12 06:03:08;;;;;;;30.30;18.90;;;;;;;14.35;100.00;101837.25;5077098;28;20031;-61
2021/08/12 06:05:35;;;;;;;30.85;19.17;;;;;;;14.44;100.00;101840.81;5072099;28;20057;-61
2021/08/12 06:08:02;;;;;;;31.83;20.85;;;;;;;14.55;100.00;101840.88;5076391;28;20047;-62
2021/08/12 06:10:27;;;;;;;34.63;20.83;;;;;;;14.68;100.00;101833.88;5076376;28;20020;-62
2021/08/12 06:12:54;;;;;;;32.92;20.85;;;;;;;14.84;100.00;101834.78;5078108;28;20033;-61
2021/08/12 06:15:19;;;;;;;31.35;19.90;;;;;;;14.97;100.00;101841.91;5075219;28;20082;-61
2021/08/12 06:17:45;;;;;;;33.70;21.48;;;;;;;15.10;99.57;101839.25;5075378;28;20024;-61
2021/08/12 06:20:11;;;;;;;32.58;21.33;;;;;;;15.24;97.34;101832.16;5075876;28;20478;-62
2021/08/12 06:22:36;;;;;;;32.90;22.65;;;;;;;15.37;99.94;101841.06;5074696;28;20494;-62
2021/08/12 06:25:03;;;;;;;34.80;22.50;;;;;;;15.50;97.03;101844.63;5073367;28;20040;-61
2021/08/12 06:27:28;;;;;;;36.00;23.23;;;;;;;15.60;94.82;101838.41;5076043;28;20036;-61
2021/08/12 06:29:53;;;;;;;34.33;23.35;;;;;;;15.71;92.02;101842.81;5075434;28;20032;-62
2021/08/12 06:32:19;;;;;;;34.88;22.65;;;;;;;15.78;89.36;101840.16;5074643;28;20411;-62
2021/08/12 06:34:44;;;;;;;33.78;22.88;;;;;;;15.89;90.71;101840.16;5075253;28;20028;-61
2021/08/12 06:37:09;;;;;;;33.17;23.00;;;;;;;15.97;88.66;101843.69;5072857;28;20038;-61
2021/08/12 06:39:35;;;;;;;33.80;22.42;;;;;;;16.07;85.60;101833.03;5078079;28;20375;-61
2021/08/12 06:42:00;;;;;;;33.60;22.75;;;;;;;16.12;86.19;101837.44;5076726;28;20032;-62
2021/08/12 06:44:25;;;;;;;32.50;21.13;;;;;;;16.20;84.27;101842.75;5077073;28;20028;-61
2021/08/12 06:46:51;;;;;;;32.92;21.88;;;;;;;16.28;84.75;101848.06;5076253;28;20052;-61
2021/08/12 06:49:16;;;;;;;34.92;21.73;;;;;;;16.39;84.30;101844.44;5077567;28;20024;-61
2021/08/12 06:51:41;;;;;;;31.60;20.85;;;;;;;16.47;81.57;101844.44;5077060;28;20439;-61
2021/08/12 06:54:07;;;;;;;32.97;20.80;;;;;;;16.57;80.65;101837.25;5075341;28;20028;-61
2021/08/12 06:56:32;;;;;;;32.00;19.30;;;;;;;16.68;79.93;101843.44;5064109;28;20021;-63
2021/08/12 06:58:57;;;;;;;31.45;19.63;;;;;;;16.79;81.43;101842.47;5073553;28;20021;-63
2021/08/12 07:01:23;;;;;;;29.85;18.00;;;;;;;16.85;77.52;101847.81;5077118;28;20033;-63
2021/08/12 07:03:48;;;;;;;30.45;19.20;;;;;;;16.97;78.25;101849.56;5074041;28;20051;-63
2021/08/12 07:06:13;;;;;;;30.50;19.00;;;;;;;17.07;78.60;101845.91;5077152;28;20479;-63
2021/08/12 07:08:39;;;;;;;30.70;19.02;;;;;;;17.20;78.81;101836.03;5076508;28;20027;-65
2021/08/12 07:11:05;;;;;;;33.80;22.02;;;;;;;17.30;79.43;101836.84;5071307;28;20055;-65
2021/08/12 07:13:30;;;;;;;33.10;20.17;;;;;;;17.36;78.38;101835.00;5074140;28;20028;-65
2021/08/12 07:15:55;;;;;;;30.60;18.55;;;;;;;17.45;76.96;101843.84;5073508;28;20082;-64
2021/08/12 07:18:21;;;;;;;30.95;18.95;;;;;;;17.54;76.89;101836.63;5073357;28;20029;-65
2021/08/12 07:20:48;;;;;;;29.77;18.00;;;;;;;17.65;76.87;101833.88;5077031;28;20119;-65
2021/08/12 07:23:14;;;;;;;30.92;17.85;;;;;;;17.74;78.17;101841.78;5071413;28;20033;-65
2021/08/12 07:25:39;;;;;;;32.35;19.10;;;;;;;17.86;76.12;101847.94;5067505;28;20036;-64
2021/08/12 07:28:04;;;;;;;31.40;19.38;;;;;;;17.96;76.41;101840.75;5066684;28;20056;-65
2021/08/12 07:30:30;;;;;;;30.42;19.10;;;;;;;18.00;75.07;101848.72;5078047;28;20025;-65
2021/08/12 07:32:55;;;;;;;32.15;20.58;;;;;;;18.05;79.98;101848.66;5071188;28;20380;-65
2021/08/12 07:35:22;;;;;;;31.48;19.45;;;;;;;18.14;77.13;101843.19;5080878;28;20460;-64
2021/08/12 07:37:48;;;;;;;30.92;19.38;;;;;;;18.22;78.60;101851.16;5081576;28;20053;-64
2021/08/12 07:40:13;;;;;;;30.30;18.85;;;;;;;18.26;76.37;101843.06;5077246;28;20020;-63
2021/08/12 07:42:39;;;;;;;30.17;18.42;;;;;;;18.31;74.13;101844.81;5076923;28;20075;-64
2021/08/12 07:45:05;;;;;;;29.40;16.77;;;;;;;18.35;76.09;101844.75;5079677;28;20024;-63
2021/08/12 07:47:32;;;;;;;26.95;15.60;;;;;;;18.45;76.16;101849.06;5074148;28;20467;-64
2021/08/12 07:49:58;;;;;;;28.63;16.55;;;;;;;18.57;73.17;101848.03;5074689;28;20550;-64
2021/08/12 07:52:23;;;;;;;30.90;17.80;;;;;;;18.67;73.72;101847.91;5077002;28;20024;-64
2021/08/12 07:54:50;;;;;;;29.20;16.92;;;;;;;18.77;73.62;101855.78;5075027;28;20059;-64
2021/08/12 07:57:16;;;;;;;28.15;15.60;;;;;;;18.98;72.77;101853.75;5073874;28;20435;-64
2021/08/12 07:59:42;;;;;;;26.00;14.65;;;;;;;19.15;73.31;101850.81;5073115;28;20107;-64
2021/08/12 08:02:07;;;;;;;26.25;14.32;;;;;;;19.30;72.83;101857.72;5075387;28;20478;-63
2021/08/12 08:04:33;;;;;;;25.17;12.82;;;;;;;19.37;68.09;101854.03;5074866;28;20470;-64
2021/08/12 08:07:00;;;;;;;26.05;14.20;;;;;;;19.45;69.92;101851.22;5076382;28;20032;-64
2021/08/12 08:09:25;;;;;;;25.52;12.98;;;;;;;19.58;66.97;101851.91;5074473;28;20029;-64
2021/08/12 08:11:51;;;;;;;25.52;12.82;;;;;;;19.63;67.75;101852.69;5076710;28;20043;-64
2021/08/12 08:14:16;;;;;;;25.58;12.50;;;;;;;19.69;66.46;101858.84;5073286;28;20163;-65
2021/08/12 08:16:43;;;;;;;23.88;11.90;;;;;;;19.77;67.22;101849.78;5069603;28;20048;-65
2021/08/12 08:19:08;;;;;;;24.35;11.68;;;;;;;19.87;65.23;101840.69;5072211;28;20024;-64
2021/08/12 08:21:33;;;;;;;24.58;11.82;;;;;;;20.04;65.19;101853.78;5076600;28;20051;-64
2021/08/12 08:23:59;;;;;;;24.95;12.88;;;;;;;20.53;66.64;101849.19;5075867;28;20029;-66
2021/08/12 08:26:24;;;;;;;24.08;11.32;;;;;;;21.11;63.12;101855.09;5072492;28;20035;-65
2021/08/12 08:28:50;;;;;;;23.55;10.90;;;;;;;21.56;59.41;101846.84;5074765;28;20020;-65
2021/08/12 08:31:15;;;;;;;23.13;10.85;;;;;;;22.01;57.26;101847.47;5070324;28;20025;-66
2021/08/12 08:33:40;;;;;;;23.05;10.70;;;;;;;;;;5072896;28;20051;-68
2021/08/12 08:36:06;;;;;;;23.60;10.90;;;;;;;22.50;57.00;101851.47;5078269;28;20024;-68
2021/08/12 08:38:31;;;;;;;23.38;11.15;;;;;;;22.79;56.37;101847.91;5080083;28;20333;-65
2021/08/12 08:40:57;;;;;;;22.40;10.30;;;;;;;23.39;55.36;101845.09;5072290;28;20032;-66
2021/08/12 08:43:24;;;;;;;23.55;10.57;;;;;;;24.04;52.00;101850.09;5077020;28;20020;-65
2021/08/12 08:45:51;;;;;;;23.40;10.18;;;;;;;24.26;52.12;101851.06;5077860;28;20109;-66
2021/08/12 08:48:17;;;;;;;23.95;11.15;;;;;;;24.40;50.63;101849.66;5078189;28;20099;-68
2021/08/12 08:50:45;;;;;;;21.55;9.30;;;;;;;24.86;49.92;101850.63;5080395;28;20058;-64
2021/08/12 08:53:17;;;;;;;23.70;9.35;;;;;;;25.53;49.78;101851.50;5077943;28;20027;-67
2021/08/12 08:55:43;;;;;;;21.58;8.80;;;;;;;26.00;47.31;101851.28;5078532;28;20027;-65
2021/08/12 08:58:10;;;;;;;22.85;9.82;;;;;;;25.64;44.99;101851.91;5078992;28;20069;-66
2021/08/12 09:00:36;;;;;;;22.45;9.23;;;;;;;25.56;47.13;101848.66;5081024;28;20035;-68
2021/08/12 09:03:01;;;;;;;22.27;8.98;;;;;;;25.70;45.98;101854.38;5078473;28;20040;-67
2021/08/12 09:05:26;;;;;;;22.13;8.45;;;;;;;25.82;44.71;101857.47;5079104;28;20032;-65
2021/08/12 09:07:52;;;;;;;21.02;8.00;;;;;;;25.93;45.29;101852.47;5073206;28;20060;-66
2021/08/12 09:10:17;;;;;;;20.90;8.25;;;;;;;26.17;44.37;101855.94;5077846;28;20032;-67
2021/08/12 09:12:47;;;;;;;21.65;8.68;;;;;;;25.80;44.42;101854.81;5073663;28;20013;-67
2021/08/12 09:15:18;;;;;;;21.85;8.48;;;;;;;25.43;45.23;101856.44;5075530;28;20031;-69
2021/08/12 09:17:44;;;;;;;20.55;8.60;;;;;;;24.75;46.26;101848.31;5078412;28;20636;-67
2021/08/12 09:20:15;;;;;;;21.23;8.48;;;;;;;24.30;49.16;101851.84;5075802;28;20383;-69
2021/08/12 09:22:57;;;;;;;21.38;8.20;;;;;;;24.39;49.37;101856.00;5072249;28;20045;-69
2021/08/12 09:25:30;;;;;;;21.70;8.45;;;;;;;25.09;47.82;101857.81;5073728;28;20072;-68
2021/08/12 09:28:10;;;;;;;20.85;7.82;;;;;;;26.15;46.67;101859.66;5073301;28;20383;-66
2021/08/12 09:30:36;;;;;;;20.35;7.40;;;;;;;26.69;43.42;101858.06;5071520;28;20036;-67
2021/08/12 09:33:01;;;;;;;20.85;7.72;;;;;;;27.25;40.66;101858.97;5075727;28;20470;-65
2021/08/12 09:35:27;;;;;;;20.83;7.57;;;;;;;27.04;41.24;101855.50;5075468;28;20024;-66
2021/08/12 09:37:53;;;;;;;20.73;7.80;;;;;;;27.00;41.90;101847.56;5076761;28;20111;-65
2021/08/12 09:40:26;;;;;;;20.73;7.80;;;;;;;27.43;41.68;101851.75;5069759;28;20025;-65
2021/08/12 09:43:00;;;;;;;19.67;7.35;;;;;;;27.66;42.45;101847.84;5073620;28;20024;-66
2021/08/12 09:45:27;;;;;;;19.73;7.63;;;;;;;28.11;39.04;101853.69;5076750;28;20577;-66
2021/08/12 09:47:53;;;;;;;21.08;8.18;;;;;;;27.72;38.28;101840.34;5069644;28;20382;-66
2021/08/12 09:50:26;;;;;;;20.05;8.30;;;;;;;27.67;40.09;101848.75;5075829;28;20024;-66
2021/08/12 09:52:52;;;;;;;20.08;7.25;;;;;;;28.39;40.44;101843.16;5073111;28;20456;-65
2021/08/12 09:55:22;;;;;;;20.60;7.70;;;;;;;28.93;37.62;101856.47;5076018;28;20103;-69
2021/08/12 09:57:52;;;;;;;21.00;8.25;;;;;;;28.70;39.21;101858.63;5074820;28;20028;-67
2021/08/12 10:00:20;;;;;;;20.33;7.97;;;;;;;28.71;38.24;101852.25;5076175;28;20123;-66
2021/08/12 10:02:46;;;;;;;19.40;7.30;;;;;;;28.60;38.44;101841.94;5074750;28;20028;-65
2021/08/12 10:05:11;;;;;;;18.83;7.20;;;;;;;28.62;37.55;101848.19;5076069;28;20528;-66
2021/08/12 10:07:48;;;;;;;20.60;6.93;;;;;;;28.58;39.35;101856.59;5080124;28;20039;-67
2021/08/12 10:10:24;;;;;;;19.40;7.20;;;;;;;28.97;37.72;101849.88;5074068;28;20028;-68
2021/08/12 10:12:51;;;;;;;19.65;7.28;;;;;;;29.04;38.16;101841.28;5074940;28;20021;-67
2021/08/12 10:15:22;;;;;;;19.77;7.65;;;;;;;29.82;36.82;101839.44;5071829;28;20031;-65
2021/08/12 10:17:49;;;;;;;19.88;7.00;;;;;;;29.70;36.63;101830.16;5072257;28;20025;-67
2021/08/12 10:20:27;;;;;;;20.02;7.05;;;;;;;29.80;36.72;101825.91;5072424;28;20028;-67
2021/08/12 10:22:54;;;;;;;20.35;6.80;;;;;;;30.04;37.03;101828.09;5069256;28;20131;-67
2021/08/12 10:25:21;;;;;;;19.42;6.97;;;;;;;31.06;34.26;101821.56;5071827;28;20025;-67
2021/08/12 10:27:49;;;;;;;19.42;6.55;;;;;;;31.41;34.13;101815.56;5072305;28;20120;-67
2021/08/12 10:30:15;;;;;;;18.60;6.32;;;;;;;31.49;34.35;101829.56;5072258;28;20017;-67
2021/08/12 10:32:47;;;;;;;19.25;6.75;;;;;;;31.09;33.61;101832.28;5069806;28;20028;-67
2021/08/12 10:35:13;;;;;;;19.52;6.35;;;;;;;31.23;33.95;101818.56;5072336;28;20383;-68
2021/08/12 10:37:38;;;;;;;19.10;6.35;;;;;;;31.32;34.34;101827.13;5075859;28;20025;-67
2021/08/12 10:40:04;;;;;;;17.60;6.20;;;;;;;31.65;33.17;101820.34;5075769;28;20047;-67
2021/08/12 10:42:33;;;;;;;18.25;6.80;;;;;;;32.56;34.38;101822.94;5076004;28;20028;-68
2021/08/12 10:44:59;;;;;;;17.65;6.10;;;;;;;33.73;30.93;101821.44;5074786;28;20106;-67
2021/08/12 10:47:44;;;;;;;19.13;6.93;;;;;;;34.96;30.40;101823.47;5075799;28;20111;-68
2021/08/12 10:50:21;;;;;;;19.33;6.80;;;;;;;34.58;31.00;101818.25;5075895;28;20375;-67
2021/08/12 10:53:04;;;;;;;20.15;6.68;;;;;;;34.19;30.23;101822.38;5072780;28;20025;-67
2021/08/12 10:55:30;;;;;;;19.77;6.57;;;;;;;32.95;30.58;101815.50;5076499;28;20111;-68
2021/08/12 10:58:18;;;;;;;19.05;6.65;;;;;;;33.21;30.55;101807.19;5074235;28;20108;-67
2021/08/12 11:01:00;;;;;;;19.23;7.03;;;;;;;32.70;31.52;101810.13;5071583;28;20540;-67
2021/08/12 11:03:32;;;;;;;19.27;6.47;;;;;;;32.46;32.07;101819.13;5073137;28;20028;-67
2021/08/12 11:06:07;;;;;;;17.85;6.30;;;;;;;33.45;30.68;101801.69;5073981;28;20104;-67
2021/08/12 11:08:54;;;;;;;18.92;6.60;;;;;;;34.64;31.10;101805.03;5075300;28;20387;-67
2021/08/12 11:11:22;;;;;;;18.40;6.20;;;;;;;35.31;27.88;101805.88;5072234;28;20033;-67
2021/08/12 11:13:49;;;;;;;18.17;6.45;;;;;;;34.57;28.27;101805.56;5075529;28;20024;-67